Terminal Aerodrome Forecast
Issued by NWS

Home | Current Version | Previous Version | Graphics & Text | Print | Product List | Glossary On
Versions: 1 2 3 4 5 6 7 8 9 10 11 12 13 14 15 16 17 18 19
000
FTUS43 KABR 281700
TAFATY
TAF
KATY 281728Z 2818/2918 30020G26KT P6SM OVC020
     FM282100 31019G26KT P6SM OVC050
     FM290200 31009KT P6SM BKN025
     FM291200 29004KT P6SM SCT025=

USA.gov is the U.S. government's official web portal to all federal, state and local government web resources and services.